Big Bear Station Historical Data
Daily Summary for January 21, 2019 Units:  English    Metric   Both
Next Day »
Daily Weekly Monthly Yearly Custom
  High: Low: Average:
Temperature: 35.2 °F 23.9 °F 28.4 °F
Dew Point: 31.9 °F 12.6 °F 22.8 °F
Humidity: 95% 51% 80%
Wind Speed: 15.0mph 0.0mph 4.9mph
Wind Gust: -999.0mph - -
Wind- - West
Pressure: 23.45 in 23.32 in -
Precipitation: 0.00 in    
Historical Graphs
 
 
Tabular Data for January 21, 2019
Time Temperature Dew Point Pressure Wind Wind Speed Wind Gust Humidity Rainfall Rate (Hourly)
00:13 35.2 °F 31.1 °F 23.39 in South 4.7 mph -999.0 mph 85% 0.00 in
00:28 35.2 °F 31.4 °F 23.39 in WSW 5.3 mph -999.0 mph 86% 0.00 in
00:43 35.1 °F 31.9 °F 23.38 in SSE 3.2 mph -999.0 mph 88% 0.00 in
00:58 34.9 °F 30.9 °F 23.39 in Calm   -999.0 mph 85% 0.00 in
01:14 34.7 °F 31.5 °F 23.38 in SSE 6.8 mph -999.0 mph 88% 0.00 in
01:29 34.5 °F 30.7 °F 23.38 in ESE 4.7 mph -999.0 mph 86% 0.00 in
01:44 34.3 °F 30.5 °F 23.39 in South 1.1 mph -999.0 mph 86% 0.00 in
02:00 34.0 °F 31.1 °F 23.38 in SW 3.2 mph -999.0 mph 89% 0.00 in
02:18 33.4 °F 31.3 °F 23.37 in NNE 5.3 mph -999.0 mph 92% 0.00 in
02:34 32.9 °F 30.0 °F 23.37 in West 15.0 mph -999.0 mph 89% 0.00 in
02:50 32.7 °F 30.1 °F 23.37 in WSW 4.7 mph -999.0 mph 90% 0.00 in
03:06 32.5 °F 30.7 °F 23.36 in South 4.7 mph -999.0 mph 93% 0.00 in
03:23 31.8 °F 29.5 °F 23.34 in WSW 3.7 mph -999.0 mph 91% 0.00 in
03:40 31.5 °F 29.2 °F 23.34 in West 8.3 mph -999.0 mph 91% 0.00 in
03:56 30.7 °F 28.4 °F 23.34 in SSE 8.9 mph -999.0 mph 91% 0.00 in
04:12 30.7 °F 28.4 °F 23.35 in SSE 2.7 mph -999.0 mph 91% 0.00 in
04:27 30.6 °F 28.6 °F 23.33 in NNE 2.7 mph -999.0 mph 92% 0.00 in
04:42 30.4 °F 28.6 °F 23.33 in Calm   -999.0 mph 93% 0.00 in
04:57 30.0 °F 28.0 °F 23.32 in ENE 3.2 mph -999.0 mph 92% 0.00 in
05:12 28.9 °F 26.3 °F 23.33 in SSW 3.7 mph -999.0 mph 90% 0.00 in
05:28 28.8 °F 27.0 °F 23.33 in North 4.7 mph -999.0 mph 93% 0.00 in
05:43 28.2 °F 27.0 °F 23.34 in NNW 4.2 mph -999.0 mph 95% 0.00 in
05:59 27.0 °F 25.8 °F 23.35 in North 4.2 mph -999.0 mph 95% 0.00 in
06:14 25.9 °F 24.2 °F 23.35 in NW 4.7 mph -999.0 mph 93% 0.00 in
06:30 25.2 °F 23.5 °F 23.36 in NW 4.7 mph -999.0 mph 93% 0.00 in
06:45 23.9 °F 21.7 °F 23.37 in WNW 6.3 mph -999.0 mph 91% 0.00 in
07:00 24.4 °F 22.4 °F 23.37 in NE 5.3 mph -999.0 mph 92% 0.00 in
07:16 24.4 °F 21.9 °F 23.37 in NNE 3.2 mph -999.0 mph 90% 0.00 in
07:31 24.8 °F 19.5 °F 23.38 in WNW 3.2 mph -999.0 mph 80% 0.00 in
07:47 25.2 °F 16.8 °F 23.38 in NW 6.3 mph -999.0 mph 70% 0.00 in
08:02 25.7 °F 15.2 °F 23.38 in NW 6.8 mph -999.0 mph 64% 0.00 in
08:18 25.7 °F 17.3 °F 23.39 in NNW 7.3 mph -999.0 mph 70% 0.00 in
08:33 25.9 °F 15.7 °F 23.39 in WSW 4.2 mph -999.0 mph 65% 0.00 in
08:48 26.4 °F 15.1 °F 23.40 in SW 3.2 mph -999.0 mph 62% 0.00 in
09:03 27.9 °F 14.2 °F 23.40 in WNW 4.7 mph -999.0 mph 56% 0.00 in
09:19 28.4 °F 12.6 °F 23.40 in South 4.7 mph -999.0 mph 51% 0.00 in
09:34 28.4 °F 13.4 °F 23.41 in West 3.2 mph -999.0 mph 53% 0.00 in
09:49 28.4 °F 15.1 °F 23.40 in SSW 1.1 mph -999.0 mph 57% 0.00 in
10:05 28.9 °F 14.7 °F 23.39 in NNE 4.2 mph -999.0 mph 55% 0.00 in
10:20 28.9 °F 16.7 °F 23.41 in NW 8.3 mph -999.0 mph 60% 0.00 in
10:35 29.1 °F 16.9 °F 23.39 in NNW 6.8 mph -999.0 mph 60% 0.00 in
10:51 29.5 °F 18.1 °F 23.40 in WNW 2.2 mph -999.0 mph 62% 0.00 in
11:06 29.5 °F 17.3 °F 23.39 in ESE 3.2 mph -999.0 mph 60% 0.00 in
11:21 30.0 °F 18.2 °F 23.39 in NNE 3.7 mph -999.0 mph 61% 0.00 in
11:36 30.0 °F 19.3 °F 23.39 in NNW 3.2 mph -999.0 mph 64% 0.00 in
11:52 30.6 °F 19.1 °F 23.38 in NW 7.8 mph -999.0 mph 62% 0.00 in
12:07 31.1 °F 19.6 °F 23.38 in SW 4.7 mph -999.0 mph 62% 0.00 in
12:22 31.8 °F 19.5 °F 23.37 in WNW 4.7 mph -999.0 mph 60% 0.00 in
12:37 31.5 °F 20.0 °F 23.37 in NW 6.8 mph -999.0 mph 62% 0.00 in
12:53 31.1 °F 20.7 °F 23.36 in NNE 5.3 mph -999.0 mph 65% 0.00 in
13:08 32.0 °F 21.2 °F 23.36 in WNW 3.7 mph -999.0 mph 64% 0.00 in
13:23 31.6 °F 21.5 °F 23.36 in NNW 5.8 mph -999.0 mph 66% 0.00 in
13:40 30.4 °F 22.1 °F 23.36 in NW 7.3 mph -999.0 mph 71% 0.00 in
13:55 29.3 °F 21.7 °F 23.35 in NNW 6.8 mph -999.0 mph 73% 0.00 in
14:10 29.3 °F 22.4 °F 23.35 in NW 8.3 mph -999.0 mph 75% 0.00 in
14:26 29.3 °F 22.7 °F 23.35 in NW 7.3 mph -999.0 mph 76% 0.00 in
14:43 28.9 °F 22.6 °F 23.35 in NW 7.3 mph -999.0 mph 77% 0.00 in
14:58 28.9 °F 23.2 °F 23.34 in NNW 6.8 mph -999.0 mph 79% 0.00 in
15:13 29.3 °F 23.3 °F 23.35 in North 4.2 mph -999.0 mph 78% 0.00 in
15:28 28.9 °F 23.2 °F 23.35 in NNW 5.8 mph -999.0 mph 79% 0.00 in
15:43 28.4 °F 23.0 °F 23.35 in NNE 5.8 mph -999.0 mph 80% 0.00 in
15:59 28.0 °F 23.5 °F 23.35 in NW 5.8 mph -999.0 mph 83% 0.00 in
16:14 27.7 °F 23.2 °F 23.36 in NNW 4.2 mph -999.0 mph 83% 0.00 in
16:29 27.1 °F 23.2 °F 23.36 in NNW 6.3 mph -999.0 mph 85% 0.00 in
16:45 27.0 °F 23.4 °F 23.37 in NNE 9.4 mph -999.0 mph 86% 0.00 in
17:00 26.6 °F 23.0 °F 23.36 in NW 6.3 mph -999.0 mph 86% 0.00 in
17:16 26.4 °F 23.1 °F 23.37 in NNW 6.8 mph -999.0 mph 87% 0.00 in
17:31 25.7 °F 22.4 °F 23.37 in NNW 5.8 mph -999.0 mph 87% 0.00 in
17:47 25.5 °F 22.7 °F 23.37 in WNW 5.8 mph -999.0 mph 89% 0.00 in
18:03 25.3 °F 22.5 °F 23.37 in NNW 7.3 mph -999.0 mph 89% 0.00 in
18:18 25.3 °F 22.5 °F 23.38 in NW 4.7 mph -999.0 mph 89% 0.00 in
18:33 25.3 °F 22.5 °F 23.38 in North 5.3 mph -999.0 mph 89% 0.00 in
18:49 25.2 °F 22.4 °F 23.38 in NW 6.8 mph -999.0 mph 89% 0.00 in
19:04 25.0 °F 22.7 °F 23.40 in NNW 8.3 mph -999.0 mph 91% 0.00 in
19:19 24.8 °F 22.5 °F 23.39 in NNW 4.7 mph -999.0 mph 91% 0.00 in
19:35 25.0 °F 22.5 °F 23.40 in North 6.3 mph -999.0 mph 90% 0.00 in
19:50 24.4 °F 22.2 °F 23.40 in NW 5.3 mph -999.0 mph 91% 0.00 in
20:05 24.8 °F 22.3 °F 23.40 in NNW 4.2 mph -999.0 mph 90% 0.00 in
20:21 25.2 °F 22.4 °F 23.41 in NNW 4.7 mph -999.0 mph 89% 0.00 in
20:36 25.9 °F 22.3 °F 23.41 in NW 4.2 mph -999.0 mph 86% 0.00 in
20:52 26.1 °F 22.2 °F 23.42 in North 3.2 mph -999.0 mph 85% 0.00 in
21:07 25.7 °F 22.1 °F 23.42 in North 4.2 mph -999.0 mph 86% 0.00 in
21:22 25.7 °F 22.1 °F 23.42 in NNW 3.7 mph -999.0 mph 86% 0.00 in
21:37 25.2 °F 21.9 °F 23.43 in NNW 1.7 mph -999.0 mph 87% 0.00 in
21:53 24.6 °F 21.3 °F 23.43 in NW 2.7 mph -999.0 mph 87% 0.00 in
22:08 24.8 °F 21.5 °F 23.44 in Calm   -999.0 mph 87% 0.00 in
22:23 25.9 °F 21.4 °F 23.44 in North 1.7 mph -999.0 mph 83% 0.00 in
22:38 25.9 °F 21.4 °F 23.44 in NNW 4.2 mph -999.0 mph 83% 0.00 in
22:54 26.1 °F 20.5 °F 23.45 in North 2.2 mph -999.0 mph 79% 0.00 in
23:09 26.6 °F 21.0 °F 23.45 in North 4.7 mph -999.0 mph 79% 0.00 in
23:24 26.2 °F 20.6 °F 23.45 in North 4.7 mph -999.0 mph 79% 0.00 in
23:40 26.4 °F 19.9 °F 23.45 in NW 3.2 mph -999.0 mph 76% 0.00 in
23:55 26.2 °F 19.0 °F 23.45 in NNW 5.3 mph -999.0 mph 74% 0.00 in
Big Bear CA Weather